Time;durP1;ratioP1;P1;durP2;ratioP2;P2;SDS_P1;SDS_P2;PMS_P1;PMS_P2;Temp;Humidity;BMP_temperature;BMP_pressure;BME280_temperature;BME280_humidity;BME280_pressure;Samples;Min_cycle;Max_cycle;Signal;HPM_P1;HPM_P2
2023/06/30 00:01:33;;;;;;;16.13;5.80;;;;;;;26.35;45.52;97755.53;5092825;28;20044;-74
2023/06/30 00:03:59;;;;;;;10.88;6.03;;;;;;;26.19;44.80;97765.94;5076738;28;20494;-73
2023/06/30 00:06:25;;;;;;;23.17;6.25;;;;;;;26.22;45.46;97761.78;5094220;28;20069;-74
2023/06/30 00:08:52;;;;;;;16.13;6.68;;;;;;;26.21;46.12;97760.19;5095529;28;20435;-74
2023/06/30 00:11:23;;;;;;;16.60;7.50;;;;;;;26.02;45.47;97765.72;5093929;28;20040;-73
2023/06/30 00:13:50;;;;;;;15.18;8.15;;;;;;;26.20;45.93;97761.28;5093542;28;20071;-74
2023/06/30 00:16:15;;;;;;;19.75;8.93;;;;;;;25.84;46.63;97758.44;5059000;28;20055;-74
2023/06/30 00:18:42;;;;;;;15.07;8.77;;;;;;;25.88;46.36;97754.00;5093873;28;20451;-74
2023/06/30 00:21:08;;;;;;;14.35;7.80;;;;;;;26.13;46.49;97741.84;5075658;28;20097;-74
2023/06/30 00:23:33;;;;;;;18.52;7.82;;;;;;;26.07;45.76;97738.44;5093414;28;20062;-75
2023/06/30 00:26:01;;;;;;;18.70;7.10;;;;;;;26.16;45.54;97744.75;5059563;28;20040;-74
2023/06/30 00:28:27;;;;;;;13.50;6.65;;;;;;;26.30;45.69;97726.50;5059428;28;20080;-74
2023/06/30 00:30:54;;;;;;;21.98;7.82;;;;;;;26.04;45.71;97711.81;5093374;28;20533;-74
2023/06/30 00:33:20;;;;;;;27.85;8.23;;;;;;;26.08;45.37;97720.97;5074444;28;20067;-74
2023/06/30 00:35:49;;;;;;;25.15;8.23;;;;;;;26.03;45.62;97715.63;5090938;28;20059;-74
2023/06/30 00:38:15;;;;;;;19.25;8.68;;;;;;;26.15;45.64;97726.03;5091777;28;20040;-74
2023/06/30 00:40:40;;;;;;;13.75;8.55;;;;;;;26.17;46.00;97726.53;5093277;28;20032;-74
2023/06/30 00:43:08;;;;;;;15.55;8.80;;;;;;;25.87;46.98;97727.91;5063965;28;20139;-74
2023/06/30 00:45:34;;;;;;;19.70;8.38;;;;;;;26.04;46.39;97725.44;5080145;28;20593;-77
2023/06/30 00:48:00;;;;;;;16.70;8.20;;;;;;;26.17;46.23;97724.59;5097015;28;20040;-77
2023/06/30 00:50:26;;;;;;;11.25;8.18;;;;;;;26.21;45.12;97739.22;5096856;28;20040;-78
2023/06/30 00:52:52;;;;;;;11.98;8.52;;;;;;;26.15;45.52;97729.56;5095853;28;20491;-75
2023/06/30 00:55:18;;;;;;;11.82;9.18;;;;;;;26.12;45.12;97734.78;5095706;28;20043;-76
2023/06/30 00:57:43;;;;;;;13.95;9.50;;;;;;;26.24;46.01;97724.19;5097797;28;20118;-75
2023/06/30 01:00:12;;;;;;;13.52;9.30;;;;;;;26.26;45.62;97722.75;5096229;28;20044;-75
2023/06/30 01:02:46;;;;;;;12.00;8.82;;;;;;;26.46;45.53;97719.59;5095968;28;20055;-72
2023/06/30 01:05:19;;;;;;;13.15;9.43;;;;;;;26.55;45.45;97727.03;5094562;28;20131;-75
2023/06/30 01:07:59;;;;;;;15.60;10.65;;;;;;;26.60;45.70;97726.94;5095205;28;20044;-74
2023/06/30 01:10:27;;;;;;;20.40;10.40;;;;;;;26.05;45.74;97728.94;5061594;28;20055;-74
2023/06/30 01:12:53;;;;;;;17.20;10.40;;;;;;;26.06;45.82;97725.91;5094426;28;20066;-75
2023/06/30 01:15:21;;;;;;;12.35;9.45;;;;;;;26.21;46.39;97720.16;5044880;28;20047;-73
2023/06/30 01:17:53;;;;;;;14.50;11.25;;;;;;;26.42;45.89;97724.06;5078169;28;20044;-73
2023/06/30 01:20:19;;;;;;;15.55;10.00;;;;;;;26.39;46.15;97702.06;5078685;28;20147;-73
2023/06/30 01:22:52;;;;;;;40.00;12.68;;;;;;;26.25;45.91;97714.91;5097409;28;20433;-73
2023/06/30 01:25:27;;;;;;;47.75;16.90;;;;;;;25.85;47.16;97721.97;5096983;28;20036;-77
2023/06/30 01:27:54;;;;;;;16.48;12.43;;;;;;;25.81;47.76;97707.38;5078496;28;20066;-76
2023/06/30 01:30:21;;;;;;;17.50;11.40;;;;;;;26.01;47.54;97722.50;5060905;28;20112;-75
2023/06/30 01:32:50;;;;;;;18.23;10.68;;;;;;;26.18;46.97;97734.38;5094045;28;20036;-73
2023/06/30 01:35:16;;;;;;;15.88;11.45;;;;;;;25.89;46.56;97735.78;5077416;28;20063;-75
2023/06/30 01:37:42;;;;;;;17.83;12.45;;;;;;;25.70;46.88;97721.44;5080050;28;20092;-74
2023/06/30 01:40:09;;;;;;;25.67;12.90;;;;;;;25.48;47.64;97710.47;5097487;28;20104;-76
2023/06/30 01:42:36;;;;;;;15.00;12.15;;;;;;;25.93;48.06;97715.81;5094266;28;20047;-73
2023/06/30 01:45:03;;;;;;;51.15;13.23;;;;;;;25.82;47.60;97719.03;5094110;28;20044;-73
2023/06/30 01:47:32;;;;;;;15.27;12.00;;;;;;;25.90;48.13;97718.34;5093911;28;20048;-73
2023/06/30 01:49:58;;;;;;;21.05;11.35;;;;;;;25.72;47.24;97714.63;5093948;28;20036;-72
2023/06/30 01:52:23;;;;;;;34.45;12.05;;;;;;;25.63;47.26;97708.25;5044233;28;20109;-72
2023/06/30 01:54:50;;;;;;;81.35;13.63;;;;;;;25.57;47.54;97722.25;5094088;28;20043;-72
2023/06/30 01:57:15;;;;;;;15.23;11.73;;;;;;;25.56;48.52;97718.72;5094663;28;20036;-72
2023/06/30 01:59:42;;;;;;;16.80;12.20;;;;;;;25.47;48.19;97704.22;5093726;28;20086;-72
2023/06/30 02:02:07;;;;;;;220.43;15.82;;;;;;;25.39;47.52;97728.56;5094980;28;20060;-71
2023/06/30 02:04:34;;;;;;;225.50;15.27;;;;;;;25.29;48.81;97726.00;5093612;28;20040;-71
2023/06/30 02:07:00;;;;;;;22.25;11.68;;;;;;;25.17;49.28;97721.03;5076823;28;20457;-71
2023/06/30 02:09:25;;;;;;;25.35;11.27;;;;;;;25.29;49.02;97715.94;5093751;28;20075;-71
2023/06/30 02:11:51;;;;;;;27.83;12.13;;;;;;;25.09;49.50;97705.44;5094781;28;20067;-72
2023/06/30 02:14:17;;;;;;;15.98;10.68;;;;;;;25.46;49.19;97715.41;5093244;28;20074;-72
2023/06/30 02:16:44;;;;;;;12.63;9.82;;;;;;;25.51;48.19;97707.16;5093611;28;20067;-72
2023/06/30 02:19:10;;;;;;;19.25;10.32;;;;;;;25.78;48.05;97699.00;5076668;28;20062;-72
2023/06/30 02:21:36;;;;;;;15.30;10.00;;;;;;;26.06;47.56;97706.09;5093091;28;20047;-72
2023/06/30 02:24:02;;;;;;;20.75;10.02;;;;;;;25.58;47.97;97708.38;5093841;28;20059;-72
2023/06/30 02:26:28;;;;;;;21.23;11.07;;;;;;;25.61;48.34;97705.06;5093876;28;20040;-73
2023/06/30 02:28:56;;;;;;;15.32;10.75;;;;;;;25.65;47.98;97687.00;5092817;28;20090;-75
2023/06/30 02:31:21;;;;;;;18.63;10.07;;;;;;;25.86;47.95;97696.38;5093552;28;20348;-74
2023/06/30 02:33:47;;;;;;;17.65;10.57;;;;;;;25.91;47.30;97684.56;5094286;28;20036;-74
2023/06/30 02:36:13;;;;;;;20.27;10.05;;;;;;;26.05;47.27;97694.38;5093186;28;20043;-75
2023/06/30 02:38:39;;;;;;;17.08;10.43;;;;;;;25.99;47.28;97684.72;5076435;28;20066;-74
2023/06/30 02:41:05;;;;;;;14.05;10.10;;;;;;;26.09;47.19;97686.41;5075918;28;20043;-75
2023/06/30 02:43:30;;;;;;;14.90;10.02;;;;;;;26.20;46.61;97685.09;5075889;28;20040;-74
2023/06/30 02:45:56;;;;;;;12.52;9.98;;;;;;;26.14;46.01;97692.56;5075823;28;20052;-73
2023/06/30 02:48:24;;;;;;;12.27;10.15;;;;;;;26.32;46.05;97699.75;5075979;28;20050;-74
2023/06/30 02:50:50;;;;;;;14.75;9.63;;;;;;;26.29;46.21;97685.97;5093450;28;20040;-74
2023/06/30 02:53:16;;;;;;;15.73;10.38;;;;;;;26.39;46.20;97699.34;5075837;28;20048;-74
2023/06/30 02:55:41;;;;;;;21.00;9.82;;;;;;;26.39;45.62;97692.00;5092412;28;20165;-74
2023/06/30 02:58:12;;;;;;;31.02;9.45;;;;;;;26.43;44.77;97694.94;5075453;28;20036;-75
2023/06/30 03:00:39;;;;;;;35.60;11.48;;;;;;;25.94;46.49;97690.22;5074762;28;20396;-75
2023/06/30 03:03:06;;;;;;;36.53;12.63;;;;;;;25.82;47.61;97684.50;5039589;28;20041;-75
2023/06/30 03:05:34;;;;;;;55.60;13.57;;;;;;;25.61;48.00;97686.00;5081114;28;20039;-75
2023/06/30 03:08:03;;;;;;;18.00;12.55;;;;;;;25.81;48.44;97685.63;5049898;28;20036;-74
2023/06/30 03:10:29;;;;;;;15.93;12.23;;;;;;;25.72;48.59;97676.56;5080092;28;20466;-74
2023/06/30 03:12:55;;;;;;;25.70;12.95;;;;;;;25.62;48.93;97678.66;5047145;28;20149;-74
2023/06/30 03:15:22;;;;;;;21.85;12.75;;;;;;;25.64;48.42;97669.09;5065705;28;20036;-74
2023/06/30 03:17:49;;;;;;;14.75;11.18;;;;;;;25.62;48.47;97673.22;5074320;28;20104;-74
2023/06/30 03:20:15;;;;;;;15.63;11.65;;;;;;;25.68;48.60;97670.09;5072404;28;20394;-76
2023/06/30 03:22:41;;;;;;;20.23;11.73;;;;;;;25.79;48.79;97676.13;5055529;28;20040;-76
2023/06/30 03:25:11;;;;;;;18.27;12.15;;;;;;;25.53;49.15;97670.41;5080189;28;20127;-75
2023/06/30 03:27:36;;;;;;;17.70;12.27;;;;;;;25.53;48.50;97669.59;5063766;28;20156;-73
2023/06/30 03:30:05;;;;;;;20.15;12.30;;;;;;;25.73;48.71;97672.72;5036274;28;20045;-71
2023/06/30 03:32:33;;;;;;;19.67;12.93;;;;;;;25.70;49.02;97676.03;5034888;28;20048;-72
2023/06/30 03:35:02;;;;;;;20.27;13.40;;;;;;;25.75;48.66;97667.78;5047625;28;20487;-69
2023/06/30 03:37:33;;;;;;;25.75;14.55;;;;;;;25.77;48.66;97670.22;5068596;28;20476;-70
2023/06/30 03:40:00;;;;;;;32.95;13.30;;;;;;;25.81;47.35;97673.91;5035077;28;20060;-68
2023/06/30 03:42:30;;;;;;;20.83;13.13;;;;;;;25.64;49.03;97673.72;5056009;28;20152;-70
2023/06/30 03:44:55;;;;;;;20.25;12.60;;;;;;;25.66;48.28;97676.94;5056803;28;20495;-69
2023/06/30 03:47:22;;;;;;;21.90;13.35;;;;;;;25.72;48.67;97673.03;5036108;28;20595;-69
2023/06/30 03:49:49;;;;;;;17.63;13.13;;;;;;;25.72;48.61;97671.13;5063186;28;20475;-69
2023/06/30 03:52:14;;;;;;;22.02;13.38;;;;;;;25.79;48.60;97671.50;5031705;28;20139;-67
2023/06/30 03:54:40;;;;;;;19.15;13.57;;;;;;;25.86;48.87;97671.09;5035590;28;20032;-69
2023/06/30 03:57:06;;;;;;;25.25;15.75;;;;;;;25.92;48.64;97670.69;5036207;28;20224;-67
2023/06/30 03:59:32;;;;;;;28.23;18.17;;;;;;;25.91;48.48;97676.41;5033717;28;20151;-68
2023/06/30 04:01:58;;;;;;;35.42;21.48;;;;;;;26.06;48.25;97665.28;5037370;28;20059;-68
2023/06/30 04:04:24;;;;;;;32.58;20.45;;;;;;;26.11;48.31;97668.66;5035925;28;20044;-69
2023/06/30 04:06:50;;;;;;;42.75;21.52;;;;;;;26.21;47.91;97664.94;5036161;28;20062;-68
2023/06/30 04:09:16;;;;;;;42.00;22.95;;;;;;;26.31;47.65;97664.69;5036882;28;20067;-69
2023/06/30 04:11:43;;;;;;;38.10;23.45;;;;;;;26.49;47.71;97667.25;5019845;28;20048;-69
2023/06/30 04:14:10;;;;;;;36.30;21.92;;;;;;;26.49;47.87;97672.69;5036436;28;20075;-69
2023/06/30 04:16:35;;;;;;;33.10;22.58;;;;;;;26.45;47.38;97666.28;5051799;28;20143;-67
2023/06/30 04:19:02;;;;;;;37.45;22.85;;;;;;;26.58;47.19;97669.25;5035906;28;20056;-68
2023/06/30 04:21:29;;;;;;;39.50;22.65;;;;;;;26.48;47.29;97665.66;5019862;28;20076;-68
2023/06/30 04:23:55;;;;;;;39.17;24.00;;;;;;;26.52;47.02;97661.19;5019729;28;20052;-69
2023/06/30 04:26:21;;;;;;;36.55;23.38;;;;;;;26.61;46.78;97661.28;4995070;28;20084;-70
2023/06/30 04:28:48;;;;;;;51.95;28.42;;;;;;;26.69;46.90;97662.47;4994444;28;20053;-70
2023/06/30 04:31:15;;;;;;;45.30;26.77;;;;;;;26.66;46.77;97665.81;4939200;28;20050;-72
2023/06/30 04:33:41;;;;;;;41.13;24.38;;;;;;;26.67;46.79;97670.16;4939261;28;20061;-69
2023/06/30 04:36:07;;;;;;;41.15;22.30;;;;;;;26.72;46.68;97667.31;4955243;28;20070;-69
2023/06/30 04:38:33;;;;;;;33.50;20.15;;;;;;;26.82;46.60;97672.50;4952331;28;20047;-68
2023/06/30 04:40:59;;;;;;;36.97;19.73;;;;;;;26.72;46.43;97667.31;4953798;28;20065;-67
2023/06/30 04:43:25;;;;;;;30.75;18.17;;;;;;;26.88;46.59;97668.56;4955204;28;20137;-67
2023/06/30 04:45:51;;;;;;;30.67;16.90;;;;;;;26.95;46.02;97669.72;4939696;28;20100;-70
2023/06/30 04:48:17;;;;;;;25.48;16.73;;;;;;;27.06;45.55;97662.88;4923681;28;20086;-69
2023/06/30 04:50:43;;;;;;;27.20;17.00;;;;;;;27.03;45.45;97652.59;4938848;28;20038;-67
2023/06/30 04:53:10;;;;;;;21.63;16.42;;;;;;;27.10;45.27;97650.25;4938904;28;20105;-73
2023/06/30 04:55:36;;;;;;;27.75;17.75;;;;;;;27.33;44.64;97661.94;4938171;28;20059;-73
2023/06/30 04:58:03;;;;;;;23.92;16.30;;;;;;;27.60;43.81;97670.72;4931740;29;20440;-72
2023/06/30 05:00:30;;;;;;;25.30;16.05;;;;;;;27.40;43.39;97667.78;4900372;29;20056;-69
2023/06/30 05:02:56;;;;;;;24.15;15.45;;;;;;;27.59;42.90;97662.88;4885001;29;20122;-69
2023/06/30 05:05:22;;;;;;;24.00;16.35;;;;;;;27.76;43.05;97655.56;4912910;29;20075;-74
2023/06/30 05:07:48;;;;;;;29.90;16.77;;;;;;;27.84;42.17;97665.69;4940357;28;20056;-75
2023/06/30 05:10:13;;;;;;;28.25;17.48;;;;;;;27.90;42.36;97661.72;4989380;28;20053;-75
2023/06/30 05:12:39;;;;;;;26.63;15.98;;;;;;;28.03;42.48;97673.66;4988184;28;20080;-74
2023/06/30 05:15:05;;;;;;;27.05;17.75;;;;;;;28.17;42.06;97677.00;4972200;28;20050;-75
2023/06/30 05:17:33;;;;;;;25.27;15.77;;;;;;;28.16;41.81;97667.22;4958479;28;20042;-74
2023/06/30 05:19:59;;;;;;;26.45;16.88;;;;;;;28.22;41.76;97671.41;5008515;28;20537;-78
2023/06/30 05:22:25;;;;;;;21.33;16.25;;;;;;;28.09;41.12;97666.09;4976007;28;20069;-77
2023/06/30 05:24:51;;;;;;;25.15;16.38;;;;;;;27.99;40.87;97659.81;5009380;28;20075;-78
2023/06/30 05:27:18;;;;;;;28.77;17.35;;;;;;;28.19;41.59;97666.59;5057703;28;20063;-79
2023/06/30 05:29:44;;;;;;;26.35;15.70;;;;;;;28.20;41.06;97660.00;5069705;28;20143;-80
2023/06/30 05:32:10;;;;;;;20.20;14.77;;;;;;;28.43;39.96;97669.66;5075072;28;20055;-80
2023/06/30 05:34:36;;;;;;;20.75;13.68;;;;;;;28.36;41.09;97658.41;5072497;28;20101;-75
2023/06/30 05:37:02;;;;;;;20.80;13.68;;;;;;;28.49;41.02;97665.69;5073913;28;20450;-82
2023/06/30 05:39:28;;;;;;;19.83;12.57;;;;;;;28.58;40.98;97661.03;5073768;28;20387;-80
2023/06/30 05:41:54;;;;;;;22.35;13.50;;;;;;;28.62;40.75;97663.91;5073124;28;20119;-79
2023/06/30 05:44:20;;;;;;;23.30;14.15;;;;;;;28.56;40.66;97674.22;5073192;28;20361;-74
2023/06/30 05:46:46;;;;;;;20.08;13.90;;;;;;;28.56;40.83;97654.28;5084157;28;20048;-74
2023/06/30 05:49:12;;;;;;;16.77;14.18;;;;;;;28.63;40.92;97660.84;5093521;28;20036;-73
2023/06/30 05:51:38;;;;;;;19.27;13.90;;;;;;;28.63;40.77;97657.34;5093848;28;20318;-72
2023/06/30 05:54:04;;;;;;;18.10;13.88;;;;;;;28.83;40.62;97668.41;5093464;28;20050;-79
2023/06/30 05:56:31;;;;;;;20.85;13.98;;;;;;;28.85;40.52;97663.41;5058688;28;20075;-75
2023/06/30 05:58:57;;;;;;;21.38;15.10;;;;;;;28.92;40.12;97663.72;5094150;28;20044;-76
2023/06/30 06:01:23;;;;;;;19.52;13.88;;;;;;;28.70;40.37;97663.91;5060558;28;20138;-74
2023/06/30 06:03:49;;;;;;;20.38;14.30;;;;;;;28.90;39.87;97668.72;5093122;28;20104;-74
2023/06/30 06:06:15;;;;;;;18.38;12.68;;;;;;;28.90;39.31;97674.19;5092812;28;20057;-74
2023/06/30 06:08:44;;;;;;;21.13;14.98;;;;;;;28.91;38.44;97661.31;5059148;28;20510;-75
2023/06/30 06:11:11;;;;;;;18.65;13.82;;;;;;;28.93;39.05;97665.34;5091535;28;20052;-76
2023/06/30 06:13:37;;;;;;;18.13;13.00;;;;;;;29.21;38.84;97672.09;5056972;28;20055;-74
2023/06/30 06:16:04;;;;;;;16.52;11.98;;;;;;;29.51;39.01;97673.75;5091204;28;20048;-73
2023/06/30 06:18:30;;;;;;;18.02;11.68;;;;;;;29.60;38.18;97669.03;5096100;28;20048;-74
2023/06/30 06:20:56;;;;;;;14.02;10.98;;;;;;;30.00;37.61;97660.50;5077107;28;20050;-74
2023/06/30 06:23:23;;;;;;;20.20;10.93;;;;;;;29.97;37.16;97653.75;5075092;28;20043;-74
2023/06/30 06:25:49;;;;;;;17.75;10.70;;;;;;;30.06;37.31;97646.28;5058264;28;20040;-75
2023/06/30 06:28:15;;;;;;;14.98;10.98;;;;;;;30.08;37.33;97662.38;5090251;28;20090;-75
2023/06/30 06:30:41;;;;;;;20.05;11.77;;;;;;;30.18;37.57;97660.06;5074409;28;20055;-75
2023/06/30 06:33:07;;;;;;;20.17;14.27;;;;;;;30.13;37.42;97653.97;5090156;28;20039;-75
2023/06/30 06:35:36;;;;;;;27.17;16.95;;;;;;;30.14;37.42;97661.06;5090295;28;20120;-76
2023/06/30 06:38:02;;;;;;;21.08;15.77;;;;;;;29.93;36.50;97652.81;5073738;28;20043;-77
2023/06/30 06:40:28;;;;;;;26.10;13.93;;;;;;;29.84;37.63;97646.59;5073916;28;20047;-75
2023/06/30 06:42:55;;;;;;;23.70;14.05;;;;;;;29.95;37.66;97652.47;5059599;28;20480;-75
2023/06/30 06:45:26;;;;;;;20.95;13.75;;;;;;;29.79;37.94;97657.72;5060399;28;20040;-75
2023/06/30 06:48:23;;;;;;;25.13;15.32;;;;;;;30.06;37.34;97648.22;5075867;28;20201;-73
2023/06/30 06:50:51;;;;;;;21.63;13.45;;;;;;;29.74;38.50;97646.16;5093268;28;20570;-74
2023/06/30 06:53:22;;;;;;;20.88;12.52;;;;;;;29.66;38.72;97642.34;5091421;28;20058;-74
2023/06/30 06:55:49;;;;;;;26.45;16.02;;;;;;;29.53;39.03;97651.53;5091349;28;20522;-75
2023/06/30 06:58:16;;;;;;;24.10;15.85;;;;;;;29.36;38.86;97641.47;5092196;28;20051;-75
2023/06/30 07:00:44;;;;;;;24.90;16.52;;;;;;;29.45;38.83;97641.41;5041353;28;20094;-75
2023/06/30 07:03:10;;;;;;;26.38;15.00;;;;;;;29.19;38.80;97627.84;5074112;28;20047;-75
2023/06/30 07:05:37;;;;;;;22.33;13.70;;;;;;;29.11;38.95;97625.94;5091146;28;20051;-74
2023/06/30 07:08:04;;;;;;;20.38;13.15;;;;;;;29.08;38.91;97636.72;5074888;28;20044;-75
2023/06/30 07:10:31;;;;;;;16.20;12.98;;;;;;;29.21;38.39;97642.00;5091828;28;20036;-75
2023/06/30 07:12:57;;;;;;;22.48;14.00;;;;;;;28.99;39.06;97625.78;5090199;28;20109;-74
2023/06/30 07:15:24;;;;;;;20.35;13.48;;;;;;;29.17;38.83;97638.28;5057149;28;20039;-71
2023/06/30 07:17:49;;;;;;;21.05;13.05;;;;;;;29.11;39.12;97642.34;5057220;28;20044;-76
2023/06/30 07:20:16;;;;;;;25.00;14.07;;;;;;;29.17;39.28;97618.34;5090515;28;20055;-77
2023/06/30 07:22:42;;;;;;;24.73;13.70;;;;;;;29.02;39.26;97633.31;5090654;28;20047;-73
2023/06/30 07:25:08;;;;;;;23.02;15.82;;;;;;;28.88;39.75;97635.44;5073380;28;20094;-73
2023/06/30 07:27:38;;;;;;;23.80;16.08;;;;;;;29.05;39.83;97629.97;5090238;28;20058;-74
2023/06/30 07:30:07;;;;;;;23.07;15.67;;;;;;;28.72;39.66;97628.91;5073559;28;20039;-74
2023/06/30 07:32:34;;;;;;;25.52;15.38;;;;;;;28.73;40.47;97635.13;5073676;28;20553;-73
2023/06/30 07:35:03;;;;;;;22.90;15.02;;;;;;;28.88;40.31;97638.19;5091397;28;20036;-73
2023/06/30 07:37:29;;;;;;;22.10;14.93;;;;;;;28.62;40.16;97634.69;5075358;28;20336;-72
2023/06/30 07:39:55;;;;;;;23.13;14.77;;;;;;;28.71;40.36;97638.19;5092142;28;20056;-73
2023/06/30 07:42:22;;;;;;;23.58;14.43;;;;;;;28.73;39.91;97627.75;5091216;28;20055;-72
2023/06/30 07:44:49;;;;;;;21.52;13.73;;;;;;;28.78;40.07;97644.00;5090887;28;20039;-73
2023/06/30 07:47:17;;;;;;;24.08;14.38;;;;;;;29.11;39.97;97636.06;5088868;28;20396;-72
2023/06/30 07:49:42;;;;;;;21.95;13.02;;;;;;;29.06;39.46;97639.00;5090099;28;20112;-73
2023/06/30 07:52:08;;;;;;;23.45;14.00;;;;;;;29.23;38.99;97638.94;5089305;28;20048;-74
2023/06/30 07:54:34;;;;;;;18.85;13.13;;;;;;;29.51;38.81;97642.84;5089922;28;20143;-73
2023/06/30 07:57:00;;;;;;;24.80;13.75;;;;;;;29.44;38.58;97637.91;5056818;28;20048;-73
2023/06/30 07:59:26;;;;;;;22.45;13.38;;;;;;;29.43;38.34;97632.75;5073375;28;20040;-66
2023/06/30 08:01:52;;;;;;;17.48;12.60;;;;;;;29.44;38.14;97632.44;5056893;28;20069;-66
2023/06/30 08:04:21;;;;;;;19.50;12.32;;;;;;;29.74;38.27;97640.69;5056368;28;20040;-66
2023/06/30 08:06:49;;;;;;;16.38;12.70;;;;;;;29.68;37.66;97631.84;5057078;28;20134;-66
2023/06/30 08:09:15;;;;;;;19.30;11.18;;;;;;;29.96;37.68;97635.72;5056685;28;20040;-67
2023/06/30 08:11:41;;;;;;;16.50;11.73;;;;;;;30.06;37.01;97629.06;5055935;28;20059;-67
2023/06/30 08:14:07;;;;;;;15.15;12.02;;;;;;;30.46;37.06;97622.81;5056364;28;20040;-68
2023/06/30 08:16:33;;;;;;;24.25;11.25;;;;;;;30.64;36.33;97623.47;5073534;28;20117;-68
2023/06/30 08:18:59;;;;;;;18.75;11.05;;;;;;;30.88;35.44;97624.41;5039854;28;20043;-65
2023/06/30 08:21:25;;;;;;;20.65;11.23;;;;;;;31.13;34.90;97623.34;5056618;28;20044;-67
2023/06/30 08:23:51;;;;;;;16.67;10.57;;;;;;;31.18;34.54;97611.34;5089994;28;20093;-68
2023/06/30 08:26:17;;;;;;;16.23;11.48;;;;;;;31.30;34.15;97614.13;5056209;28;20072;-68
2023/06/30 08:28:43;;;;;;;18.80;11.00;;;;;;;31.39;33.88;97605.78;5056787;28;20874;-67
2023/06/30 08:31:09;;;;;;;18.35;11.35;;;;;;;31.43;33.95;97604.75;5056256;28;20044;-67
2023/06/30 08:33:35;;;;;;;14.90;10.85;;;;;;;31.60;33.83;97601.78;5089842;28;20468;-66
2023/06/30 08:36:03;;;;;;;18.23;11.80;;;;;;;31.39;33.36;97597.56;5089604;28;20051;-67
2023/06/30 08:38:31;;;;;;;15.98;11.23;;;;;;;31.65;33.21;97612.56;5056813;28;20040;-67
2023/06/30 08:40:58;;;;;;;18.10;12.27;;;;;;;31.56;32.86;97594.59;5072810;28;20134;-66
2023/06/30 08:43:28;;;;;;;17.58;11.43;;;;;;;31.57;33.37;97601.69;5055881;28;20083;-67
2023/06/30 08:45:54;;;;;;;18.23;9.70;;;;;;;31.35;32.88;97608.44;5072414;28;20116;-69
2023/06/30 08:48:22;;;;;;;22.42;9.30;;;;;;;31.28;32.50;97608.16;5072418;28;20052;-66
2023/06/30 08:50:52;;;;;;;17.00;9.00;;;;;;;31.57;32.24;97602.47;5072357;28;20073;-67
2023/06/30 08:53:18;;;;;;;22.87;9.87;;;;;;;31.98;31.46;97610.50;5055916;28;20531;-68
2023/06/30 08:55:48;;;;;;;16.90;8.93;;;;;;;32.60;30.53;97612.75;5039565;28;20366;-67
2023/06/30 08:58:13;;;;;;;15.25;8.15;;;;;;;32.61;30.47;97601.41;5035823;28;20208;-68
2023/06/30 09:00:40;;;;;;;13.20;8.65;;;;;;;32.76;30.17;97594.38;5052799;28;20396;-68
2023/06/30 09:03:08;;;;;;;11.43;8.00;;;;;;;32.98;29.84;97593.84;5055189;28;20060;-68
2023/06/30 09:05:38;;;;;;;14.13;7.47;;;;;;;33.53;29.06;97604.72;5056134;28;20046;-67
2023/06/30 09:08:16;;;;;;;;;;;;;;;34.17;28.20;97590.50;5041012;28;20036;-67
2023/06/30 09:10:43;;;;;;;9.63;7.32;;;;;;;34.22;28.13;97591.03;5039641;28;19960;-66
2023/06/30 09:13:10;;;;;;;16.90;8.95;;;;;;;34.11;27.03;97586.44;5073437;28;20131;-73
2023/06/30 09:15:36;;;;;;;11.95;7.60;;;;;;;33.93;27.59;97594.31;5074554;28;20082;-78
2023/06/30 09:18:02;;;;;;;11.88;7.18;;;;;;;34.06;27.56;97595.78;5056484;28;20503;-77
2023/06/30 09:20:28;;;;;;;16.05;7.43;;;;;;;33.99;27.39;97592.88;5073978;28;20044;-71
2023/06/30 09:22:54;;;;;;;15.32;7.82;;;;;;;33.83;27.83;97592.06;5056079;28;20101;-74
2023/06/30 09:25:26;;;;;;;16.85;8.93;;;;;;;33.60;28.18;97601.31;5089953;28;20128;-70
2023/06/30 09:27:55;;;;;;;14.60;7.35;;;;;;;33.19;29.05;97590.84;5072952;28;20068;-72
2023/06/30 09:30:35;;;;;;;18.33;7.15;;;;;;;33.19;30.23;97588.09;5039430;28;20044;-72
2023/06/30 09:33:01;;;;;;;8.95;7.13;;;;;;;32.85;31.36;97580.44;5073364;28;20131;-73
2023/06/30 09:35:38;;;;;;;9.13;7.20;;;;;;;33.05;31.46;97595.97;5073060;28;20040;-72
2023/06/30 09:38:24;;;;;;;9.73;6.32;;;;;;;33.17;31.50;97593.16;5057125;28;20068;-73
2023/06/30 09:40:50;;;;;;;6.15;5.43;;;;;;;33.19;30.76;97597.16;5073476;28;20051;-72
2023/06/30 09:43:20;;;;;;;9.15;4.72;;;;;;;33.56;29.75;97597.72;5073194;28;20049;-73
2023/06/30 09:45:54;;;;;;;5.68;4.07;;;;;;;33.69;29.03;97600.00;5056624;28;20114;-73
2023/06/30 09:48:20;;;;;;;7.80;3.90;;;;;;;33.46;28.89;97603.75;5073608;28;20032;-73
2023/06/30 09:50:45;;;;;;;4.75;3.40;;;;;;;33.34;28.38;97604.59;5089826;28;20055;-75
2023/06/30 09:53:11;;;;;;;6.45;3.70;;;;;;;33.23;28.52;97595.28;5074013;28;20127;-72
2023/06/30 09:55:57;;;;;;;7.10;4.30;;;;;;;33.60;28.36;97591.13;5055727;28;20044;-73
2023/06/30 09:58:24;;;;;;;6.75;4.50;;;;;;;33.32;29.20;97589.59;5070693;28;20045;-73
2023/06/30 10:00:51;;;;;;;7.05;4.78;;;;;;;33.39;29.19;97582.34;5069767;28;20068;-73
2023/06/30 10:03:18;;;;;;;7.47;4.70;;;;;;;33.52;29.09;97583.06;5075008;28;20487;-73
2023/06/30 10:05:46;;;;;;;7.40;4.90;;;;;;;33.54;29.32;97586.25;5080366;28;20098;-74
2023/06/30 10:08:13;;;;;;;5.93;5.00;;;;;;;33.66;29.07;97588.91;5083776;28;20142;-73
2023/06/30 10:10:44;;;;;;;10.45;5.60;;;;;;;33.71;28.67;97586.69;5083334;28;20047;-73
2023/06/30 10:13:12;;;;;;;8.30;5.70;;;;;;;33.71;29.12;97594.13;5082975;28;20127;-73
2023/06/30 10:15:39;;;;;;;9.98;5.68;;;;;;;33.59;28.89;97586.78;5081434;28;20040;-74
2023/06/30 10:18:05;;;;;;;7.07;5.97;;;;;;;33.71;29.09;97585.88;5084527;28;20048;-75
2023/06/30 10:20:31;;;;;;;7.55;5.50;;;;;;;33.66;29.18;97584.19;5075103;28;20100;-73
2023/06/30 10:23:00;;;;;;;8.68;6.25;;;;;;;34.14;28.77;97591.22;5085564;28;20391;-75
2023/06/30 10:25:29;;;;;;;10.85;6.22;;;;;;;34.52;28.42;97582.22;5087055;28;20032;-74
2023/06/30 10:27:56;;;;;;;9.40;5.90;;;;;;;35.63;26.88;97583.53;5067995;28;20048;-73
2023/06/30 10:30:23;;;;;;;8.25;5.72;;;;;;;37.69;24.17;97588.50;5065471;28;20476;-72
2023/06/30 10:32:49;;;;;;;7.28;5.68;;;;;;;39.74;21.82;97584.16;5066844;28;20112;-72
2023/06/30 10:35:16;;;;;;;8.93;5.30;;;;;;;41.53;19.36;97585.50;5081766;28;20036;-74
2023/06/30 10:37:42;;;;;;;7.45;5.13;;;;;;;42.52;18.40;97574.94;5083796;28;20200;-74
2023/06/30 10:40:29;;;;;;;5.25;4.72;;;;;;;42.95;17.70;97561.22;5085686;28;20426;-74
2023/06/30 10:42:57;;;;;;;6.22;4.70;;;;;;;42.57;17.75;97570.91;5071249;28;20396;-74
2023/06/30 10:45:30;;;;;;;6.60;4.93;;;;;;;42.09;18.22;97562.66;5082084;28;20056;-73
2023/06/30 10:47:57;;;;;;;8.50;5.35;;;;;;;41.30;18.91;97565.72;5079766;28;20044;-73
2023/06/30 10:50:23;;;;;;;9.57;4.88;;;;;;;41.06;19.18;97563.88;5079965;28;20448;-73
2023/06/30 10:52:51;;;;;;;5.78;4.80;;;;;;;41.63;18.49;97554.72;5081050;28;20360;-73
2023/06/30 10:55:22;;;;;;;7.15;4.55;;;;;;;41.62;18.31;97555.13;5071561;28;20036;-73
2023/06/30 10:57:50;;;;;;;12.45;5.78;;;;;;;40.90;19.34;97549.66;5079448;28;20056;-74
2023/06/30 11:00:17;;;;;;;8.75;5.68;;;;;;;39.99;20.22;97548.00;5062320;28;20537;-73
2023/06/30 11:02:54;;;;;;;9.50;7.15;;;;;;;39.33;21.10;97548.81;5072624;28;20044;-74
2023/06/30 11:05:23;;;;;;;10.93;7.70;;;;;;;38.59;21.31;97552.22;5062261;28;20131;-73
2023/06/30 11:08:13;;;;;;;13.18;8.00;;;;;;;38.54;21.58;97546.22;5078932;28;20055;-73
2023/06/30 11:10:44;;;;;;;9.75;5.60;;;;;;;38.55;21.36;97531.19;5082550;28;20040;-73
2023/06/30 11:13:11;;;;;;;6.97;4.93;;;;;;;38.38;21.29;97540.22;5081855;28;20113;-73
2023/06/30 11:15:47;;;;;;;8.43;4.65;;;;;;;38.37;21.42;97541.38;5075147;28;20032;-73
2023/06/30 11:18:14;;;;;;;3.95;3.30;;;;;;;37.62;22.19;97544.06;5079448;28;20503;-72
2023/06/30 11:21:01;;;;;;;5.47;3.10;;;;;;;37.67;21.77;97547.31;5082413;28;20472;-72
2023/06/30 11:23:29;;;;;;;8.52;3.78;;;;;;;37.81;21.46;97552.94;5084372;28;20055;-72